createdAt,value
2015-11-26T00:01:03.150Z,83
2015-11-26T00:04:55.098Z,83
2015-11-26T00:05:56.694Z,83
2015-11-26T00:06:55.353Z,83
2015-11-26T00:08:52.827Z,83
2015-11-26T00:09:51.565Z,83
2015-11-26T00:10:50.254Z,83
2015-11-26T00:11:49.007Z,83
2015-11-26T00:14:45.235Z,83
2015-11-26T00:19:41.872Z,83
2015-11-26T00:20:40.579Z,83
2015-11-26T00:21:39.298Z,83
2015-11-26T00:22:38.051Z,83
2015-11-26T00:23:36.740Z,83
2015-11-26T00:24:35.555Z,83
2015-11-26T00:29:32.195Z,83
2015-11-26T00:30:31.166Z,83
2015-11-26T00:31:30.169Z,83
2015-11-26T00:33:28.143Z,83
2015-11-26T00:35:28.914Z,84
2015-11-26T00:38:26.610Z,84
2015-11-26T00:40:25.115Z,84
2015-11-26T00:42:26.636Z,84
2015-11-26T00:43:22.810Z,84
2015-11-26T00:44:22.127Z,84
2015-11-26T00:45:23.863Z,84
2015-11-26T00:46:23.085Z,84
2015-11-26T00:47:25.369Z,84
2015-11-26T00:51:19.301Z,84
2015-11-26T00:53:20.775Z,84
2015-11-26T00:54:17.060Z,84
2015-11-26T00:56:18.049Z,84
2015-11-26T00:57:17.255Z,84
2015-11-26T00:58:16.523Z,84
2015-11-26T01:00:15.004Z,84
2015-11-26T01:02:16.477Z,84
2015-11-26T01:03:15.730Z,84
2015-11-26T01:04:11.996Z,84
2015-11-26T01:05:13.749Z,84
2015-11-26T01:07:12.207Z,84
2015-11-26T01:09:10.729Z,84
2015-11-26T01:12:08.659Z,84
2015-11-26T01:13:08.161Z,84
2015-11-26T01:14:07.477Z,84
2015-11-26T01:15:09.213Z,84
2015-11-26T01:16:08.669Z,84
2015-11-26T01:25:05.413Z,84
2015-11-26T01:26:04.932Z,84
2015-11-26T01:27:04.387Z,84
2015-11-26T01:29:03.393Z,84
2015-11-26T01:30:02.615Z,84
2015-11-26T01:31:02.132Z,84
2015-11-26T01:33:04.138Z,84
2015-11-26T01:35:02.157Z,84
2015-11-26T01:36:01.629Z,84
2015-11-26T01:37:03.913Z,84
2015-11-26T01:38:03.415Z,84
2015-11-26T01:40:58.657Z,84
2015-11-26T01:41:58.098Z,84
2015-11-26T01:43:57.134Z,84
2015-11-26T01:44:58.873Z,84
2015-11-26T01:45:58.359Z,84
2015-11-26T01:47:57.365Z,84
2015-11-26T01:50:55.842Z,84
2015-11-26T01:51:55.329Z,84
2015-11-26T01:53:57.162Z,84
2015-11-26T01:54:55.852Z,84
2015-11-26T01:57:53.845Z,84
2015-11-26T01:58:53.081Z,84
2015-11-26T01:59:52.303Z,84
2015-11-26T02:00:51.524Z,84
2015-11-26T02:02:50.014Z,84
2015-11-26T02:03:49.314Z,84
2015-11-26T02:04:51.052Z,84
2015-11-26T02:06:52.557Z,84
2015-11-26T02:08:48.031Z,84
2015-11-26T02:12:44.964Z,84
2015-11-26T02:13:44.263Z,84
2015-11-26T02:14:46.016Z,84
2015-11-26T02:16:44.459Z,84
2015-11-26T02:19:42.202Z,84
2015-11-26T02:20:41.405Z,84
2015-11-26T02:21:40.642Z,84
2015-11-26T02:22:39.910Z,84
2015-11-26T02:24:40.931Z,84
2015-11-26T02:25:40.168Z,84
2015-11-26T02:29:37.148Z,84
2015-11-26T02:31:38.623Z,84
2015-11-26T02:38:35.876Z,84
2015-11-26T02:39:32.050Z,84
2015-11-26T02:40:31.287Z,84
2015-11-26T02:41:30.509Z,84
2015-11-26T02:43:29.561Z,84
2015-11-26T02:44:31.329Z,84
2015-11-26T02:45:30.848Z,84
2015-11-26T02:47:29.791Z,84
2015-11-26T02:52:27.242Z,84
2015-11-26T02:53:26.792Z,84
2015-11-26T02:56:27.550Z,85
2015-11-26T02:57:27.303Z,85
2015-11-26T02:59:28.230Z,85
2015-11-26T03:00:26.530Z,85
2015-11-26T03:01:26.298Z,85
2015-11-26T03:04:27.587Z,85
2015-11-26T03:08:26.582Z,85
2015-11-26T03:14:27.143Z,85
2015-11-26T03:15:26.879Z,85
2015-11-26T03:17:26.416Z,85
2015-11-26T03:18:26.138Z,85
2015-11-26T03:19:25.891Z,85
2015-11-26T03:20:25.893Z,85
2015-11-26T03:21:25.927Z,85
2015-11-26T03:23:25.995Z,85
2015-11-26T03:24:27.717Z,85
2015-11-26T03:25:27.720Z,85
2015-11-26T03:26:27.754Z,85
2015-11-26T03:28:28.900Z,85
2015-11-26T03:30:30.530Z,85
2015-11-26T03:31:27.501Z,85
2015-11-26T03:32:27.520Z,85
2015-11-26T03:33:27.585Z,85
2015-11-26T03:37:29.846Z,85
2015-11-26T03:38:30.114Z,85
2015-11-26T03:39:30.383Z,85
2015-11-26T03:40:30.667Z,85
2015-11-26T03:41:30.670Z,85
2015-11-26T03:42:30.922Z,85
2015-11-26T03:44:33.005Z,85
2015-11-26T03:45:33.243Z,85
2015-11-26T03:46:33.511Z,85
2015-11-26T03:47:33.764Z,85
2015-11-26T03:50:34.616Z,85
2015-11-26T03:53:35.421Z,85
2015-11-26T03:54:37.158Z,85
2015-11-26T03:56:37.695Z,85
2015-11-26T03:57:37.948Z,85
2015-11-26T03:58:37.778Z,85
2015-11-26T04:00:38.721Z,85
2015-11-26T04:03:39.605Z,85
2015-11-26T04:04:41.341Z,85
2015-11-26T04:06:41.894Z,85
2015-11-26T04:08:42.384Z,85
2015-11-26T04:09:42.637Z,85
2015-11-26T04:10:42.968Z,85
2015-11-26T04:11:43.174Z,85
2015-11-26T04:12:43.426Z,85
2015-11-26T04:14:45.526Z,85
2015-11-26T04:15:45.778Z,85
2015-11-26T04:18:46.552Z,85
2015-11-26T04:20:47.087Z,85
2015-11-26T04:21:47.340Z,85
2015-11-26T04:22:47.625Z,85
2015-11-26T04:23:47.940Z,85
2015-11-26T04:24:49.662Z,85
2015-11-26T04:26:50.198Z,85
2015-11-26T04:29:50.988Z,85
2015-11-26T04:32:51.793Z,85
2015-11-26T04:35:54.098Z,85
2015-11-26T04:36:54.366Z,85
2015-11-26T04:38:54.903Z,85
2015-11-26T04:39:55.186Z,86
2015-11-26T04:40:55.675Z,85
2015-11-26T04:41:55.942Z,86
2015-11-26T04:42:56.492Z,85
2015-11-26T04:43:56.807Z,86
2015-11-26T04:44:58.544Z,86
2015-11-26T04:45:59.063Z,86
2015-11-26T04:46:59.550Z,86
2015-11-26T04:48:00.099Z,86
2015-11-26T04:50:01.386Z,86
2015-11-26T04:51:02.154Z,86
2015-11-26T04:53:03.738Z,86
2015-11-26T04:54:04.538Z,86
2015-11-26T04:55:06.305Z,86
2015-11-26T04:56:07.090Z,86
2015-11-26T04:57:07.827Z,86
2015-11-26T05:01:10.946Z,86
2015-11-26T05:05:15.099Z,86
2015-11-26T05:09:18.187Z,86
2015-11-26T05:11:19.740Z,86
2015-11-26T05:12:20.509Z,86
2015-11-26T05:13:21.293Z,86
2015-11-26T05:15:23.860Z,86
2015-11-26T05:17:25.413Z,86
2015-11-26T05:18:26.182Z,86
2015-11-26T05:19:26.996Z,86
2015-11-26T05:20:27.781Z,86
2015-11-26T05:25:32.653Z,86
2015-11-26T05:26:33.437Z,86
2015-11-26T05:27:34.190Z,86
2015-11-26T05:28:34.975Z,86
2015-11-26T05:30:36.792Z,86
2015-11-26T05:32:38.845Z,86
2015-11-26T05:33:39.895Z,86
2015-11-26T05:34:40.975Z,86
2015-11-26T05:35:42.712Z,86
2015-11-26T05:36:43.762Z,86
2015-11-26T05:37:44.780Z,86
2015-11-26T05:40:47.866Z,86
2015-11-26T05:41:48.666Z,86
2015-11-26T05:42:49.449Z,86
2015-11-26T05:44:51.565Z,86
2015-11-26T05:46:54.070Z,86
2015-11-26T05:47:54.855Z,86
2015-11-26T05:48:55.873Z,86
2015-11-26T05:50:57.690Z,86
2015-11-26T05:51:58.741Z,86
2015-11-26T05:52:59.758Z,86
2015-11-26T05:54:00.793Z,86
2015-11-26T05:56:03.376Z,86
2015-11-26T05:57:04.410Z,86
2015-11-26T05:58:05.429Z,86
2015-11-26T05:59:06.213Z,86
2015-11-26T06:01:07.749Z,86
2015-11-26T06:02:08.533Z,86
2015-11-26T06:04:10.070Z,86
2015-11-26T06:05:10.901Z,86
2015-11-26T06:06:12.685Z,86
2015-11-26T06:08:14.221Z,86
2015-11-26T06:09:15.005Z,86
2015-11-26T06:10:15.774Z,86
2015-11-26T06:12:17.592Z,86
2015-11-26T06:16:21.696Z,86
2015-11-26T06:17:22.495Z,86
2015-11-26T06:19:24.033Z,86
2015-11-26T06:21:25.594Z,86
2015-11-26T06:23:27.138Z,86
2015-11-26T06:25:28.684Z,86
2015-11-26T06:28:32.004Z,86
2015-11-26T06:30:33.501Z,86
2015-11-26T06:32:35.050Z,86
2015-11-26T06:35:37.444Z,86
2015-11-26T06:37:39.963Z,86
2015-11-26T06:38:40.668Z,86
2015-11-26T06:39:41.515Z,86
2015-11-26T06:41:43.050Z,86
2015-11-26T06:43:44.649Z,86
2015-11-26T06:44:45.402Z,86
2015-11-26T06:47:48.737Z,86
2015-11-26T06:48:49.521Z,86
2015-11-26T06:50:51.106Z,86
2015-11-26T06:53:53.395Z,86
2015-11-26T06:54:54.178Z,86
2015-11-26T06:55:55.025Z,86
2015-11-26T06:56:56.761Z,86
2015-11-26T06:57:57.545Z,86
2015-11-26T06:58:58.298Z,86
2015-11-26T06:59:59.098Z,86
2015-11-26T07:02:00.651Z,86
2015-11-26T07:07:05.539Z,86
2015-11-26T07:10:07.875Z,86
2015-11-26T07:11:08.660Z,86
2015-11-26T07:12:09.427Z,86
2015-11-26T07:14:10.964Z,86
2015-11-26T07:17:14.286Z,86
2015-11-26T07:18:15.070Z,86
2015-11-26T07:19:15.853Z,86
2015-11-26T07:20:16.621Z,86
2015-11-26T07:21:17.390Z,86
2015-11-26T07:22:18.174Z,86
2015-11-26T07:23:18.974Z,86
2015-11-26T07:24:19.726Z,86
2015-11-26T07:25:20.494Z,86
2015-11-26T07:27:23.078Z,86
2015-11-26T07:31:26.215Z,86
2015-11-26T07:32:26.983Z,86
2015-11-26T07:36:30.134Z,86
2015-11-26T07:37:31.871Z,86
2015-11-26T07:38:32.640Z,86
2015-11-26T07:39:33.393Z,86
2015-11-26T07:42:35.744Z,86
2015-11-26T07:44:37.016Z,86
2015-11-26T07:46:38.115Z,86
2015-11-26T07:48:40.620Z,86
2015-11-26T07:50:41.688Z,86
2015-11-26T07:51:42.440Z,86
2015-11-26T07:52:43.208Z,86
2015-11-26T07:53:43.992Z,86
2015-11-26T07:54:44.511Z,86
2015-11-26T07:55:45.045Z,86
2015-11-26T07:56:45.595Z,86
2015-11-26T07:57:47.332Z,86
2015-11-26T07:58:47.850Z,86
2015-11-26T08:01:49.436Z,86
2015-11-26T08:02:49.924Z,86
2015-11-26T08:03:50.489Z,86
2015-11-26T08:04:50.945Z,86
2015-11-26T08:05:51.510Z,86
2015-11-26T08:07:53.828Z,86
2015-11-26T08:08:54.346Z,86
2015-11-26T08:10:55.384Z,86
2015-11-26T08:12:56.389Z,85
2015-11-26T08:13:56.641Z,85
2015-11-26T08:15:57.163Z,85
2015-11-26T08:16:57.494Z,85
2015-11-26T08:18:59.514Z,85
2015-11-26T08:22:00.272Z,85
2015-11-26T08:23:00.557Z,85
2015-11-26T08:24:00.810Z,85
2015-11-26T08:27:01.629Z,85
2015-11-26T08:32:04.534Z,85
2015-11-26T08:33:03.895Z,85
2015-11-26T08:34:05.304Z,85
2015-11-26T08:35:04.511Z,85
2015-11-26T08:36:03.904Z,85
2015-11-26T08:37:03.954Z,85
2015-11-26T08:38:05.738Z,85
2015-11-26T08:39:05.709Z,85
2015-11-26T08:40:05.728Z,85
2015-11-26T08:42:05.717Z,85
2015-11-26T08:43:05.720Z,85
2015-11-26T08:46:05.209Z,85
2015-11-26T08:47:05.009Z,85
2015-11-26T08:48:06.762Z,85
2015-11-26T08:49:06.514Z,85
2015-11-26T08:50:06.252Z,85
2015-11-26T08:51:06.036Z,85
2015-11-26T08:55:04.969Z,85
2015-11-26T08:58:06.258Z,85
2015-11-26T09:00:07.185Z,85
2015-11-26T09:04:04.493Z,84
2015-11-26T09:05:04.011Z,84
2015-11-26T09:07:03.033Z,84
2015-11-26T09:09:04.506Z,85
2015-11-26T09:12:05.171Z,84
2015-11-26T09:15:02.242Z,84
2015-11-26T09:17:04.310Z,84
2015-11-26T09:18:03.046Z,84
2015-11-26T09:19:05.549Z,84
2015-11-26T09:20:05.037Z,84
2015-11-26T09:21:01.509Z,84
2015-11-26T09:23:59.719Z,84
2015-11-26T09:26:57.728Z,84
2015-11-26T09:30:00.939Z,84
2015-11-26T09:30:57.426Z,84
2015-11-26T09:33:55.122Z,84
2015-11-26T09:35:53.612Z,84
2015-11-26T09:36:52.878Z,84
2015-11-26T09:37:54.648Z,84
2015-11-26T09:38:53.867Z,84
2015-11-26T09:39:53.104Z,84
2015-11-26T09:42:50.816Z,84
2015-11-26T09:43:50.022Z,84
2015-11-26T09:44:52.305Z,84
2015-11-26T09:46:47.780Z,84
2015-11-26T09:47:49.516Z,84
2015-11-26T09:49:48.006Z,84
2015-11-26T09:50:47.212Z,84
2015-11-26T09:52:45.421Z,84
2015-11-26T09:53:44.658Z,84
2015-11-26T09:54:43.645Z,84
2015-11-26T09:57:43.668Z,84
2015-11-26T09:59:44.674Z,84
2015-11-26T10:00:40.615Z,84
2015-11-26T10:01:39.571Z,84
2015-11-26T10:02:38.541Z,84
2015-11-26T10:03:37.513Z,84
2015-11-26T10:04:36.485Z,84
2015-11-26T10:05:35.457Z,84
2015-11-26T10:06:34.537Z,84
2015-11-26T10:07:36.243Z,83
2015-11-26T10:08:34.964Z,83
2015-11-26T10:09:33.718Z,83
2015-11-26T10:10:32.407Z,83
2015-11-26T10:11:31.129Z,83
2015-11-26T10:12:29.865Z,83
2015-11-26T10:13:28.572Z,83
2015-11-26T10:14:27.324Z,83
2015-11-26T10:17:26.520Z,83
2015-11-26T10:18:25.226Z,83
2015-11-26T10:19:23.960Z,83
2015-11-26T10:20:22.666Z,83
2015-11-26T10:21:21.169Z,83
2015-11-26T10:22:19.593Z,83
2015-11-26T10:23:21.909Z,83
2015-11-26T10:24:20.615Z,83
2015-11-26T10:25:22.680Z,83
2015-11-26T10:26:25.073Z,83
2015-11-26T10:27:26.795Z,83
2015-11-26T10:28:29.097Z,83
2015-11-26T10:29:31.427Z,83
2015-11-26T10:30:33.728Z,83
2015-11-26T10:31:36.042Z,83
2015-11-26T10:32:38.342Z,83
2015-11-26T10:33:40.658Z,83
2015-11-26T10:34:42.989Z,83
2015-11-26T10:35:45.273Z,83
2015-11-26T10:36:47.634Z,83
2015-11-26T10:37:49.372Z,83
2015-11-26T10:38:51.686Z,83
2015-11-26T10:39:53.986Z,83
2015-11-26T10:41:58.616Z,83
2015-11-26T10:43:00.948Z,83
2015-11-26T10:44:03.247Z,83
2015-11-26T10:45:05.531Z,82
2015-11-26T10:46:07.580Z,82
2015-11-26T10:47:09.693Z,82
2015-11-26T10:48:11.430Z,83
2015-11-26T10:50:15.810Z,82
2015-11-26T10:52:19.941Z,82
2015-11-26T10:53:21.943Z,82
2015-11-26T10:54:24.010Z,82
2015-11-26T10:55:26.058Z,82
2015-11-26T10:56:28.108Z,82
2015-11-26T10:58:31.707Z,82
2015-11-26T10:59:33.523Z,82
2015-11-26T11:00:35.290Z,82
2015-11-26T11:01:37.091Z,82
2015-11-26T11:02:38.890Z,82
2015-11-26T11:04:42.473Z,82
2015-11-26T11:05:44.274Z,82
2015-11-26T11:06:46.058Z,82
2015-11-26T11:07:47.935Z,82
2015-11-26T11:08:49.673Z,82
2015-11-26T11:09:51.456Z,82
2015-11-26T11:10:53.256Z,82
2015-11-26T11:11:55.040Z,82
2015-11-26T11:12:56.840Z,82
2015-11-26T11:13:58.654Z,82
2015-11-26T11:15:00.423Z,82
2015-11-26T11:16:02.223Z,82
2015-11-26T11:17:04.038Z,82
2015-11-26T11:18:05.869Z,82
2015-11-26T11:19:07.621Z,82
2015-11-26T11:21:11.206Z,82
2015-11-26T11:22:12.989Z,82
2015-11-26T11:23:14.789Z,82
2015-11-26T11:24:16.604Z,82
2015-11-26T11:25:18.387Z,82
2015-11-26T11:26:20.173Z,82
2015-11-26T11:27:21.972Z,82
2015-11-26T11:28:23.850Z,82
2015-11-26T11:29:25.570Z,82
2015-11-26T11:30:27.370Z,82
2015-11-26T11:31:29.154Z,82
2015-11-26T11:33:32.754Z,82
2015-11-26T11:34:34.553Z,82
2015-11-26T11:35:36.337Z,82
2015-11-26T11:36:38.137Z,82
2015-11-26T11:37:39.921Z,82
2015-11-26T11:38:41.783Z,82
2015-11-26T11:39:43.520Z,82
2015-11-26T11:40:45.304Z,82
2015-11-26T11:41:47.103Z,82
2015-11-26T11:42:48.903Z,82
2015-11-26T11:43:50.687Z,82
2015-11-26T11:44:52.489Z,82
2015-11-26T11:45:54.289Z,82
2015-11-26T11:46:56.072Z,82
2015-11-26T11:47:57.872Z,82
2015-11-26T11:48:59.719Z,82
2015-11-26T11:50:01.456Z,81
2015-11-26T11:51:02.741Z,82
2015-11-26T11:52:04.275Z,82
2015-11-26T11:53:05.824Z,82
2015-11-26T11:54:07.608Z,82
2015-11-26T11:55:09.408Z,82
2015-11-26T11:56:10.941Z,82
2015-11-26T11:57:12.492Z,82
2015-11-26T11:58:14.025Z,82
2015-11-26T11:59:15.606Z,82
2015-11-26T12:00:17.344Z,82
2015-11-26T12:01:18.877Z,81
2015-11-26T12:02:20.162Z,81
2015-11-26T12:03:21.446Z,81
2015-11-26T12:04:22.730Z,81
2015-11-26T12:05:23.998Z,81
2015-11-26T12:06:25.282Z,81
2015-11-26T12:07:26.566Z,81
2015-11-26T12:08:27.849Z,81
2015-11-26T12:09:29.181Z,81
2015-11-26T12:10:30.918Z,81
2015-11-26T12:11:32.185Z,81
2015-11-26T12:12:33.470Z,81
2015-11-26T12:13:34.754Z,81
2015-11-26T12:14:36.054Z,81
2015-11-26T12:15:37.322Z,81
2015-11-26T12:16:38.591Z,81
2015-11-26T12:17:39.874Z,81
2015-11-26T12:18:41.143Z,81
2015-11-26T12:19:42.490Z,81
2015-11-26T12:20:44.227Z,81
2015-11-26T12:21:45.510Z,81
2015-11-26T12:22:46.779Z,81
2015-11-26T12:23:48.063Z,81
2015-11-26T12:24:49.096Z,81
2015-11-26T12:25:50.116Z,81
2015-11-26T12:26:51.134Z,81
2015-11-26T12:28:53.185Z,81
2015-11-26T12:29:54.267Z,81
2015-11-26T12:30:56.004Z,81
2015-11-26T12:31:57.023Z,81
2015-11-26T12:32:58.057Z,81
2015-11-26T12:33:59.074Z,81
2015-11-26T12:35:00.093Z,81
2015-11-26T12:36:01.143Z,81
2015-11-26T12:38:03.179Z,81
2015-11-26T12:39:04.198Z,81
2015-11-26T12:40:05.279Z,81
2015-11-26T12:41:07.000Z,81
2015-11-26T12:42:08.064Z,81
2015-11-26T12:44:09.820Z,81
2015-11-26T12:45:10.853Z,81
2015-11-26T12:46:11.623Z,81
2015-11-26T12:47:11.953Z,81
2015-11-26T12:48:13.159Z,81
2015-11-26T12:49:13.927Z,81
2015-11-26T12:50:14.743Z,81
2015-11-26T12:51:16.480Z,81
2015-11-26T12:52:17.248Z,81
2015-11-26T12:53:18.018Z,80
2015-11-26T12:54:18.536Z,80
2015-11-26T12:55:19.039Z,80
2015-11-26T12:56:19.556Z,80
2015-11-26T12:57:20.059Z,80
2015-11-26T12:58:20.311Z,80
2015-11-26T13:00:20.880Z,80
2015-11-26T13:01:22.617Z,80
2015-11-26T13:02:22.869Z,80
2015-11-26T13:03:23.138Z,80
2015-11-26T13:04:23.375Z,80
2015-11-26T13:05:23.627Z,80
2015-11-26T13:06:23.880Z,79
2015-11-26T13:07:24.477Z,79
2015-11-26T13:08:23.868Z,79
2015-11-26T13:09:23.871Z,79
2015-11-26T13:10:23.919Z,79
2015-11-26T13:12:25.644Z,79
2015-11-26T13:13:25.646Z,79
2015-11-26T13:14:25.649Z,79
2015-11-26T13:15:25.638Z,79
2015-11-26T13:16:25.655Z,79
2015-11-26T13:17:25.643Z,79
2015-11-26T13:18:25.646Z,79
2015-11-26T13:19:25.632Z,79
2015-11-26T13:20:25.697Z,79
2015-11-26T13:21:27.435Z,79
2015-11-26T13:23:27.425Z,79
2015-11-26T13:24:27.427Z,79
2015-11-26T13:25:27.415Z,79
2015-11-26T13:26:27.417Z,79
2015-11-26T13:27:27.420Z,79
2015-11-26T13:28:27.423Z,79
2015-11-26T13:29:27.410Z,79
2015-11-26T13:30:27.210Z,79
2015-11-26T13:31:28.946Z,79
2015-11-26T13:32:28.684Z,79
2015-11-26T13:33:28.436Z,79
2015-11-26T13:34:28.174Z,79
2015-11-26T13:35:27.927Z,79
2015-11-26T13:36:27.914Z,79
2015-11-26T13:38:27.904Z,79
2015-11-26T13:39:27.891Z,79
2015-11-26T13:40:27.957Z,79
2015-11-26T13:41:29.693Z,79
2015-11-26T13:42:29.712Z,79
2015-11-26T13:43:29.683Z,79
2015-11-26T13:44:29.685Z,79
2015-11-26T13:45:29.688Z,79
2015-11-26T13:46:29.425Z,79
2015-11-26T13:47:29.428Z,79
2015-11-26T13:48:29.415Z,79
2015-11-26T13:49:29.168Z,79
2015-11-26T13:50:29.217Z,79
2015-11-26T13:51:30.954Z,79
2015-11-26T13:52:30.692Z,79
2015-11-26T13:53:30.429Z,79
2015-11-26T13:54:30.182Z,79
2015-11-26T13:55:29.916Z,79
2015-11-26T13:56:29.668Z,79
2015-11-26T13:57:29.390Z,79
2015-11-26T13:58:29.393Z,79
2015-11-26T13:59:29.443Z,79
2015-11-26T14:00:29.458Z,79
2015-11-26T14:01:31.211Z,79
2015-11-26T14:02:31.183Z,79
2015-11-26T14:03:30.920Z,79
2015-11-26T14:04:30.672Z,79
2015-11-26T14:05:30.659Z,79
2015-11-26T14:06:30.669Z,79
2015-11-26T14:07:30.672Z,79
2015-11-26T14:08:30.659Z,79
2015-11-26T14:09:30.662Z,79
2015-11-26T14:10:30.711Z,79
2015-11-26T14:11:32.449Z,79
2015-11-26T14:12:32.451Z,79
2015-11-26T14:13:32.454Z,79
2015-11-26T14:14:32.191Z,79
2015-11-26T14:15:31.943Z,79
2015-11-26T14:16:31.931Z,79
2015-11-26T14:18:31.921Z,79
2015-11-26T14:19:31.923Z,79
2015-11-26T14:20:31.973Z,79
2015-11-26T14:21:33.710Z,79
2015-11-26T14:22:33.713Z,79
2015-11-26T14:23:33.716Z,79
2015-11-26T14:24:33.703Z,79
2015-11-26T14:25:33.706Z,79
2015-11-26T14:26:33.709Z,79
2015-11-26T14:27:33.711Z,80
2015-11-26T14:28:33.964Z,80
2015-11-26T14:29:34.217Z,80
2015-11-26T14:30:34.532Z,80
2015-11-26T14:31:36.271Z,80
2015-11-26T14:32:36.523Z,80
2015-11-26T14:33:36.776Z,80
2015-11-26T14:34:37.029Z,79
2015-11-26T14:35:37.048Z,80
2015-11-26T14:37:37.287Z,80
2015-11-26T14:38:37.539Z,80
2015-11-26T14:39:37.793Z,80
2015-11-26T14:40:38.108Z,80
2015-11-26T14:41:39.830Z,80
2015-11-26T14:42:40.097Z,80
2015-11-26T14:43:40.350Z,80
2015-11-26T14:44:40.603Z,80
2015-11-26T14:46:41.124Z,80
2015-11-26T14:47:41.362Z,80
2015-11-26T14:49:41.867Z,80
2015-11-26T14:50:42.183Z,80
2015-11-26T14:51:43.919Z,80
2015-11-26T14:53:44.424Z,80
2015-11-26T14:54:44.694Z,80
2015-11-26T14:55:44.930Z,80
2015-11-26T14:56:45.199Z,80
2015-11-26T14:57:45.436Z,79
2015-11-26T14:58:45.438Z,79
2015-11-26T14:59:45.441Z,80
2015-11-26T15:00:45.757Z,80
2015-11-26T15:01:47.494Z,80
2015-11-26T15:02:47.762Z,80
2015-11-26T15:03:48.015Z,80
2015-11-26T15:04:48.267Z,80
2015-11-26T15:05:48.536Z,80
2015-11-26T15:06:48.773Z,80
2015-11-26T15:07:49.057Z,80
2015-11-26T15:08:49.279Z,80
2015-11-26T15:10:49.862Z,80
2015-11-26T15:11:51.598Z,80
2015-11-26T15:12:51.852Z,80
2015-11-26T15:14:52.373Z,80
2015-11-26T15:15:52.626Z,80
2015-11-26T15:16:52.878Z,80
2015-11-26T15:17:53.146Z,80
2015-11-26T15:18:53.664Z,80
2015-11-26T15:19:53.902Z,80
2015-11-26T15:20:54.217Z,80
2015-11-26T15:21:55.953Z,80
2015-11-26T15:22:56.223Z,80
2015-11-26T15:23:56.475Z,80
2015-11-26T15:25:57.495Z,80
2015-11-26T15:26:58.012Z,80
2015-11-26T15:27:58.502Z,80
2015-11-26T15:28:59.006Z,80
2015-11-26T15:29:59.760Z,80
2015-11-26T15:31:00.312Z,80
2015-11-26T15:32:02.054Z,80
2015-11-26T15:33:02.816Z,80
2015-11-26T15:34:03.580Z,80
2015-11-26T15:35:04.344Z,80
2015-11-26T15:36:05.106Z,80
2015-11-26T15:37:05.871Z,80
2015-11-26T15:38:06.638Z,80
2015-11-26T15:39:07.435Z,80
2015-11-26T15:40:08.186Z,80
2015-11-26T15:41:09.000Z,80
2015-11-26T15:42:10.721Z,81
2015-11-26T15:43:11.691Z,81
2015-11-26T15:44:12.802Z,80
2015-11-26T15:45:13.555Z,81
2015-11-26T15:46:14.557Z,81
2015-11-26T15:47:15.591Z,81
2015-11-26T15:48:16.624Z,81
2015-11-26T15:50:18.927Z,81
2015-11-26T15:51:20.273Z,81
2015-11-26T15:52:22.025Z,81
2015-11-26T15:53:23.295Z,81
2015-11-26T15:54:24.593Z,81
2015-11-26T15:55:25.878Z,81
2015-11-26T15:56:27.162Z,81
2015-11-26T15:57:28.445Z,81
2015-11-26T15:58:29.729Z,81
2015-11-26T15:59:31.279Z,81
2015-11-26T16:00:32.814Z,81
2015-11-26T16:01:34.426Z,81
2015-11-26T16:02:36.163Z,81
2015-11-26T16:03:37.728Z,81
2015-11-26T16:04:39.245Z,81
2015-11-26T16:05:40.796Z,81
2015-11-26T16:06:42.330Z,82
2015-11-26T16:07:44.129Z,82
2015-11-26T16:08:45.945Z,82
2015-11-26T16:09:47.728Z,82
2015-11-26T16:10:49.528Z,82
2015-11-26T16:12:53.127Z,82
2015-11-26T16:13:54.911Z,82
2015-11-26T16:14:56.711Z,82
2015-11-26T16:15:58.525Z,82
2015-11-26T16:17:00.592Z,82
2015-11-26T16:18:02.642Z,82
2015-11-26T16:19:04.675Z,82
2015-11-26T16:20:06.741Z,82
2015-11-26T16:21:08.806Z,82
2015-11-26T16:22:11.184Z,82
2015-11-26T16:23:12.906Z,82
2015-11-26T16:24:15.220Z,82
2015-11-26T16:25:17.536Z,82
2015-11-26T16:26:19.836Z,82
2015-11-26T16:27:22.151Z,82
2015-11-26T16:28:24.466Z,82
2015-11-26T16:29:26.781Z,82
2015-11-26T16:30:29.096Z,82
2015-11-26T16:32:33.774Z,82
2015-11-26T16:34:37.825Z,82
2015-11-26T16:35:39.703Z,82
2015-11-26T16:36:42.456Z,82
2015-11-26T16:37:44.772Z,82
2015-11-26T16:38:47.072Z,82
2015-11-26T16:39:49.387Z,82
2015-11-26T16:40:51.703Z,82
2015-11-26T16:41:54.017Z,83
2015-11-26T16:42:52.535Z,83
2015-11-26T16:43:54.273Z,83
2015-11-26T16:44:52.744Z,83
2015-11-26T16:45:51.216Z,83
2015-11-26T16:47:48.393Z,83
2015-11-26T16:48:47.130Z,83
2015-11-26T16:49:45.852Z,83
2015-11-26T16:50:44.573Z,83
2015-11-26T16:51:43.294Z,83
2015-11-26T16:52:42.079Z,83
2015-11-26T16:53:43.816Z,83
2015-11-26T16:54:42.552Z,83
2015-11-26T16:55:41.275Z,83
2015-11-26T16:57:38.966Z,84
2015-11-26T16:58:37.952Z,84
2015-11-26T16:59:36.924Z,84
2015-11-26T17:00:35.911Z,84
2015-11-26T17:01:34.883Z,84
2015-11-26T17:02:33.932Z,84
2015-11-26T17:03:35.670Z,84
2015-11-26T17:05:33.894Z,84
2015-11-26T17:06:33.130Z,84
2015-11-26T17:07:32.368Z,84
2015-11-26T17:08:31.589Z,84
2015-11-26T17:09:30.827Z,84
2015-11-26T17:10:30.064Z,84
2015-11-26T17:11:29.300Z,84
2015-11-26T17:12:28.599Z,84
2015-11-26T17:13:30.338Z,84
2015-11-26T17:14:29.138Z,84
2015-11-26T17:15:28.811Z,84
2015-11-26T17:16:28.049Z,84
2015-11-26T17:17:27.285Z,84
2015-11-26T17:18:26.524Z,84
2015-11-26T17:19:25.760Z,84
2015-11-26T17:20:28.029Z,84
2015-11-26T17:21:27.265Z,84
2015-11-26T17:22:23.535Z,84
2015-11-26T17:24:24.493Z,84
2015-11-26T17:25:23.730Z,84
2015-11-26T17:26:22.982Z,84
2015-11-26T17:27:22.219Z,84
2015-11-26T17:28:21.440Z,84
2015-11-26T17:29:20.678Z,84
2015-11-26T17:30:19.915Z,84
2015-11-26T17:31:19.418Z,84
2015-11-26T17:32:18.686Z,84
2015-11-26T17:33:20.439Z,84
2015-11-26T17:34:19.926Z,84
2015-11-26T17:35:19.428Z,84
2015-11-26T17:36:18.666Z,84
2015-11-26T17:37:18.153Z,84
2015-11-26T17:38:17.653Z,84
2015-11-26T17:39:17.139Z,84
2015-11-26T17:40:16.627Z,84
2015-11-26T17:41:16.114Z,85
2015-11-26T17:42:15.913Z,84
2015-11-26T17:43:17.667Z,85
2015-11-26T17:44:17.419Z,84
2015-11-26T17:45:16.906Z,84
2015-11-26T17:46:16.408Z,84
2015-11-26T17:47:15.911Z,84
2015-11-26T17:48:15.398Z,84
2015-11-26T17:49:14.886Z,84
2015-11-26T17:50:14.373Z,84
2015-11-26T17:52:13.409Z,84
2015-11-26T17:53:15.162Z,84
2015-11-26T17:54:14.650Z,84
2015-11-26T17:55:17.167Z,84
2015-11-26T17:56:16.669Z,84
2015-11-26T17:57:13.127Z,84
2015-11-26T17:58:12.614Z,84
2015-11-26T17:59:12.116Z,84
2015-11-26T18:00:11.603Z,84
2015-11-26T18:01:11.090Z,84
2015-11-26T18:02:10.655Z,84
2015-11-26T18:03:12.393Z,84
2015-11-26T18:04:11.879Z,84
2015-11-26T18:05:11.382Z,84
2015-11-26T18:06:10.869Z,84
2015-11-26T18:07:10.356Z,84
2015-11-26T18:08:09.859Z,85
2015-11-26T18:09:09.595Z,85
2015-11-26T18:10:09.348Z,84
2015-11-26T18:11:08.851Z,85
2015-11-26T18:12:08.666Z,85
2015-11-26T18:13:10.388Z,85
2015-11-26T18:14:10.140Z,85
2015-11-26T18:15:09.893Z,85
2015-11-26T18:16:09.646Z,85
2015-11-26T18:17:09.383Z,85
2015-11-26T18:18:09.136Z,85
2015-11-26T18:19:08.896Z,85
2015-11-26T18:20:08.649Z,85
2015-11-26T18:21:08.401Z,85
2015-11-26T18:22:08.200Z,85
2015-11-26T18:23:09.937Z,85
2015-11-26T18:24:09.690Z,85
2015-11-26T18:25:10.849Z,85
2015-11-26T18:26:09.180Z,85
2015-11-26T18:27:08.949Z,85
2015-11-26T18:28:08.685Z,85
2015-11-26T18:29:08.439Z,85
2015-11-26T18:30:08.191Z,85
2015-11-26T18:31:07.929Z,85
2015-11-26T18:32:07.744Z,85
2015-11-26T18:33:09.480Z,85
2015-11-26T18:35:10.393Z,85
2015-11-26T18:36:08.723Z,85
2015-11-26T18:37:08.491Z,85
2015-11-26T18:38:08.229Z,85
2015-11-26T18:39:07.997Z,85
2015-11-26T18:41:07.487Z,85
2015-11-26T18:42:07.287Z,85
2015-11-26T18:43:09.024Z,84
2015-11-26T18:44:08.527Z,84
2015-11-26T18:45:08.011Z,85
2015-11-26T18:46:07.763Z,84
2015-11-26T18:47:07.266Z,84
2015-11-26T18:48:06.754Z,84
2015-11-26T18:49:06.240Z,84
2015-11-26T18:51:05.246Z,84
2015-11-26T18:53:06.267Z,84
2015-11-26T18:54:05.801Z,84
2015-11-26T18:55:05.054Z,84
2015-11-26T18:56:04.291Z,84
2015-11-26T18:57:03.497Z,84
2015-11-26T18:58:02.734Z,84
2015-11-26T19:00:04.192Z,84
2015-11-26T19:01:00.476Z,84
2015-11-26T19:04:00.703Z,84
2015-11-26T19:06:02.240Z,84
2015-11-26T19:07:01.477Z,84
2015-11-26T19:07:57.652Z,84
2015-11-26T19:08:56.936Z,84